Date,TemperatureHighF,TemperatureAvgF,TemperatureLowF,DewpointHighF,DewpointAvgF,DewpointLowF,HumidityHigh,HumidityAvg,HumidityLow,PressureMaxIn,PressureMinIn,WindSpeedMaxMPH,WindSpeedAvgMPH,GustSpeedMaxMPH,PrecipitationSumIn
2013-1-1,34,32,31,29,27,25,89,81,70,0.00,40.00,2,1,3,0.00
2013-1-2,35,30,23,28,24,21,95,78,57,0.00,40.00,3,1,5,0.00
2013-1-3,33,24,18,25,21,18,97,88,65,0.00,40.00,2,1,4,0.00
2013-1-4,38,30,21,29,25,21,97,83,66,0.00,40.00,2,0,3,0.00
2013-1-5,40,32,25,30,28,25,99,85,59,0.00,40.00,2,0,3,0.00
2013-1-6,38,33,28,34,31,28,99,92,82,0.00,40.00,2,0,3,0.08
2013-1-7,35,32,28,35,32,28,100,99,93,0.00,40.00,2,1,3,0.56
2013-1-8,36,34,30,36,34,30,100,100,100,0.00,40.00,2,0,3,0.16
2013-1-9,44,37,34,43,37,34,100,100,94,0.00,40.00,4,1,6,1.11
2013-1-10,36,34,32,36,34,31,100,100,98,0.00,40.00,2,0,4,0.60
2013-1-11,35,28,23,32,28,22,100,95,79,0.00,40.00,2,0,4,0.12
2013-1-12,30,26,22,25,23,21,97,90,73,0.00,40.00,2,0,3,0.04
2013-1-13,29,25,23,25,23,20,97,91,76,0.00,40.00,2,0,3,0.04
2013-1-14,27,25,22,26,23,20,97,93,84,0.00,40.00,2,1,2,0.24
2013-1-15,37,29,27,30,27,24,98,91,68,0.00,40.00,2,1,3,0.00
2013-1-16,36,27,19,27,25,19,98,90,67,0.00,40.00,2,1,4,0.00
2013-1-17,38,24,15,28,21,14,98,90,62,0.00,40.00,3,1,4,0.00
2013-1-18,39,27,21,31,25,20,99,91,67,0.00,40.00,3,1,4,0.00
2013-1-19,40,29,22,30,26,22,100,92,68,0.00,40.00,2,1,4,0.00
2013-1-20,37,28,22,30,26,22,99,91,71,0.00,40.00,2,1,3,0.00
2013-1-21,39,26,21,30,24,20,99,91,64,0.00,40.00,2,1,3,0.00
2013-1-22,35,27,21,29,25,20,99,91,73,0.00,40.00,2,1,4,0.04
2013-1-23,35,28,20,33,26,20,99,94,79,0.00,40.00,2,1,4,0.16
2013-1-24,37,34,33,36,34,33,100,100,93,0.00,40.00,2,1,3,0.00
2013-1-25,39,36,34,39,36,34,100,100,100,0.00,40.00,3,0,4,1.36
2013-1-26,39,37,35,39,37,35,100,100,100,0.00,40.00,2,0,4,1.12
2013-1-27,42,36,34,38,36,34,100,97,84,0.00,40.00,2,0,3,0.00
2013-1-28,38,35,33,37,35,33,100,99,90,0.00,40.00,2,0,3,0.44
2013-1-29,42,36,34,41,36,34,100,99,93,0.00,40.00,2,0,3,0.88
2013-1-30,40,36,34,40,36,34,100,100,96,0.00,40.00,2,0,3,0.36
2013-1-31,43,38,36,42,39,36,100,99,96,0.00,40.00,1,0,2,0.12
2013-2-1,49,39,35,46,39,35,100,99,85,0.00,40.00,2,0,3,0.00
2013-2-2,50,38,33,40,36,33,100,94,63,0.00,40.00,2,0,3,0.00
2013-2-3,43,35,31,40,34,31,100,98,86,0.00,40.00,2,1,3,0.00
2013-2-4,53,40,35,42,37,35,100,89,59,0.00,40.00,2,0,3,0.00
2013-2-5,52,42,36,44,39,35,100,91,63,0.00,40.00,3,1,6,0.32
2013-2-6,51,40,34,42,37,33,99,91,67,0.00,40.00,3,1,4,0.00
2013-2-7,48,38,33,38,35,32,100,89,62,0.00,40.00,2,1,4,0.04
2013-2-8,43,40,36,38,36,33,97,88,70,0.00,40.00,2,0,3,0.04
2013-2-9,43,37,33,36,34,32,99,88,66,0.00,40.00,1,0,2,0.12
2013-2-10,45,36,31,35,33,29,99,87,57,0.00,40.00,3,0,4,0.00
2013-2-11,48,36,32,35,32,30,96,83,54,0.00,40.00,2,1,3,0.00
2013-2-12,52,42,34,40,35,32,92,79,56,0.00,40.00,1,0,2,0.00
2013-2-13,53,44,36,46,38,33,93,80,52,0.00,40.00,3,1,5,0.00
2013-2-14,52,40,31,38,34,31,100,81,47,0.00,40.00,2,0,3,0.00
2013-2-15,60,44,34,40,36,32,96,77,41,0.00,40.00,2,0,3,0.00
2013-2-16,58,41,29,44,36,29,100,86,47,0.00,40.00,4,1,9,0.04
2013-2-17,46,40,35,40,38,35,100,95,67,0.00,40.00,3,0,4,1.10
2013-2-18,49,39,35,39,35,33,100,84,56,0.00,40.00,2,1,4,0.00
2013-2-19,46,39,34,38,34,33,97,85,67,0.00,40.00,2,0,4,0.00
2013-2-20,45,38,31,37,35,30,98,87,64,0.00,40.00,3,1,5,0.08
2013-2-21,45,36,30,38,32,28,100,88,59,0.00,40.00,3,1,5,0.32
2013-2-22,47,39,35,41,38,35,100,97,76,0.00,40.00,4,1,7,0.32
2013-2-23,45,38,34,40,36,31,100,92,58,0.00,40.00,2,1,4,0.59
2013-2-24,49,38,33,35,33,29,100,83,47,0.00,40.00,3,1,5,0.00
2013-2-25,48,38,31,38,34,31,99,88,57,0.00,40.00,3,1,6,0.24
2013-2-26,48,38,32,36,32,24,100,80,38,0.00,40.00,2,0,4,0.00
2013-2-27,56,40,30,34,30,24,97,70,29,0.00,40.00,6,1,9,0.00
2013-2-28,44,41,38,44,40,34,100,97,76,0.00,40.00,2,0,3,1.36
2013-3-1,54,45,39,49,44,39,100,93,76,0.00,40.00,3,1,5,0.00
2013-3-2,52,44,39,48,43,39,100,96,74,0.00,40.00,4,1,6,0.87
2013-3-3,51,43,31,47,32,22,100,70,32,0.00,40.00,5,2,10,0.36
2013-3-4,55,37,26,32,27,21,99,73,28,0.00,40.00,3,1,5,0.00
2013-3-5,50,37,26,36,30,26,99,76,43,0.00,40.00,2,1,4,0.00
2013-3-6,57,45,38,44,38,32,100,81,41,0.00,40.00,4,1,9,0.16
2013-3-7,58,44,34,40,34,25,100,75,28,0.00,40.00,3,1,5,0.00
2013-3-8,57,40,29,35,31,25,100,76,29,0.00,40.00,3,1,6,0.00
2013-3-9,55,40,31,38,32,29,96,77,43,0.00,40.00,3,1,5,0.00
2013-3-10,55,41,28,43,34,28,100,78,42,0.00,40.00,3,1,8,0.12
2013-3-11,56,46,39,43,40,35,100,82,49,0.00,40.00,3,1,4,0.00
2013-3-12,55,46,38,47,41,35,97,86,62,0.00,40.00,3,1,5,0.08
2013-3-13,58,48,42,48,44,42,99,88,62,0.00,40.00,2,0,3,0.00
2013-3-14,60,49,40,47,43,39,99,81,51,0.00,40.00,2,0,3,0.00
2013-3-15,66,54,44,46,43,38,97,72,36,0.00,40.00,2,1,5,0.00
2013-3-16,60,46,38,46,41,36,98,81,41,0.00,40.00,3,1,6,0.55
2013-3-17,47,41,35,44,33,25,100,77,44,0.00,40.00,6,2,13,0.87
2013-3-18,51,43,37,35,31,22,91,66,33,0.00,40.00,8,1,11,0.00
2013-3-19,59,43,28,40,30,26,93,64,29,0.00,40.00,3,1,5,0.00
2013-3-20,68,48,38,46,42,37,100,81,34,0.00,40.00,9,1,12,1.77
2013-3-21,44,37,33,39,35,31,100,92,63,0.00,40.00,5,1,8,0.24
2013-3-22,44,36,33,35,33,27,100,88,53,0.00,40.00,4,1,7,0.36
2013-3-23,45,37,33,34,32,29,100,85,55,0.00,40.00,3,1,5,0.08
2013-3-24,53,37,28,31,27,14,100,73,23,0.00,40.00,4,1,6,0.00
2013-3-25,59,41,26,39,29,22,98,67,26,0.00,40.00,2,1,3,0.00
2013-3-26,64,49,35,42,36,33,95,65,33,0.00,40.00,3,1,4,0.00
2013-3-27,66,49,41,49,41,36,92,75,37,0.00,40.00,3,1,4,0.04
2013-3-28,62,51,40,50,45,40,99,82,54,0.00,40.00,3,1,5,0.00
2013-3-29,60,52,47,53,49,47,100,90,61,0.00,40.00,3,1,5,0.24
2013-3-30,71,53,44,47,41,-100,99,73,21,0.00,40.00,2,1,3,0.00
2013-3-31,74,51,36,42,37,28,100,66,20,0.00,40.00,2,1,4,0.00
2013-4-1,74,53,37,47,40,35,97,67,31,0.00,40.00,3,1,5,0.00
2013-4-2,73,55,41,48,45,40,98,73,36,0.00,40.00,3,1,4,0.00
2013-4-3,71,56,43,47,44,39,97,70,31,0.00,40.00,3,1,6,0.00
2013-4-4,63,53,45,52,46,43,96,78,56,0.00,40.00,3,1,6,0.08
2013-4-5,65,55,49,52,48,42,100,80,46,0.00,40.00,4,1,6,0.56
2013-4-6,58,52,48,51,48,42,100,89,57,0.00,40.00,4,1,7,1.30
2013-4-7,54,48,44,49,46,42,100,91,66,0.00,40.00,3,1,5,0.59
2013-4-8,53,45,37,45,40,35,99,87,52,0.00,40.00,4,1,7,0.00
2013-4-9,60,43,34,40,34,27,100,76,33,0.00,40.00,4,1,5,0.00
2013-4-10,57,50,43,52,43,39,95,80,56,0.00,40.00,4,1,6,0.20
2013-4-11,59,49,38,43,37,31,92,66,36,0.00,40.00,3,1,5,0.00
2013-4-12,64,48,34,48,37,29,99,70,30,0.00,40.00,2,1,4,0.79
2013-4-13,51,45,40,47,37,24,100,76,36,0.00,40.00,6,2,12,0.28
2013-4-14,55,44,38,37,35,29,92,72,42,0.00,40.00,5,1,10,0.04
2013-4-15,55,44,33,36,28,20,97,60,28,0.00,40.00,7,2,13,0.00
2013-4-16,54,44,32,28,21,14,78,43,23,0.00,40.00,8,2,18,0.00
2013-4-17,58,42,28,30,24,16,91,53,22,0.00,40.00,4,2,7,0.00
2013-4-18,56,43,31,41,31,26,87,64,35,0.00,40.00,2,1,4,0.00
2013-4-19,53,48,44,53,47,39,100,97,77,0.00,40.00,1,0,2,1.56
2013-4-20,61,52,47,51,47,39,100,84,45,0.00,40.00,3,1,6,0.08
2013-4-21,60,51,43,46,44,36,99,79,42,0.00,40.00,4,1,9,1.06
2013-4-22,59,47,36,43,31,21,99,60,23,0.00,40.00,5,2,9,0.00
2013-4-23,62,45,31,34,30,21,98,62,21,0.00,40.00,4,1,9,0.00
2013-4-24,70,49,32,40,34,27,97,62,25,0.00,40.00,3,1,6,0.00
2013-4-25,74,54,36,42,38,33,98,61,24,0.00,40.00,4,1,7,0.00
2013-4-26,80,58,39,51,42,38,96,63,25,0.00,40.00,3,1,5,0.00
2013-4-27,71,58,43,55,46,37,98,67,28,0.00,40.00,5,1,9,0.00
2013-4-28,68,58,51,53,47,38,98,70,40,0.00,40.00,4,1,7,0.08
2013-4-29,62,53,41,51,40,24,100,65,27,0.00,40.00,6,2,11,0.56
2013-4-30,55,44,36,37,32,24,94,65,32,0.00,40.00,5,2,12,0.00
2013-5-1,64,46,32,35,31,24,100,65,22,0.00,40.00,5,1,8,0.00
2013-5-2,76,52,32,44,34,25,96,58,15,0.00,40.00,3,1,5,0.00
2013-5-3,74,57,47,50,43,35,90,63,28,0.00,40.00,4,1,7,0.00
2013-5-4,77,60,41,46,40,33,98,57,21,0.00,40.00,6,2,12,0.00
2013-5-5,85,61,41,49,42,33,95,57,15,0.00,40.00,4,1,6,0.00
2013-5-6,88,64,44,51,45,39,97,57,19,0.00,40.00,2,1,4,0.00
2013-5-7,89,65,45,52,47,41,96,59,19,0.00,40.00,3,1,6,0.00
2013-5-8,89,66,48,55,49,44,97,61,23,0.00,40.00,2,1,4,0.00
2013-5-9,89,67,50,59,52,49,98,64,27,0.00,40.00,3,1,6,0.00
2013-5-10,92,63,49,53,46,-100,99,67,17,0.00,40.00,2,0,3,0.00
2013-5-11,92,65,49,60,50,-100,96,65,21,0.00,40.00,2,0,4,0.00
2013-5-12,87,69,52,62,55,51,98,68,30,0.00,40.00,3,1,6,0.00
2013-5-13,82,63,50,65,56,50,100,82,37,0.00,40.00,4,1,6,0.08
2013-5-14,69,57,49,53,48,41,100,72,36,0.00,40.00,3,1,6,0.00
2013-5-15,70,56,42,47,44,39,98,69,33,0.00,40.00,3,1,4,0.00
2013-5-16,72,54,51,52,30,-100,92,70,37,0.00,40.00,3,1,4,0.00
2013-5-17,72,58,45,54,46,-100,98,73,42,0.00,40.00,4,1,7,0.00
2013-5-18,63,57,49,54,51,47,96,81,61,0.00,40.00,2,0,4,0.04
2013-5-19,71,56,47,54,49,43,98,79,37,0.00,40.00,6,1,8,0.08
2013-5-20,81,61,45,55,49,45,99,68,29,0.00,40.00,2,1,4,0.00
2013-5-21,73,57,46,57,50,46,99,79,45,0.00,40.00,6,1,10,0.51
2013-5-22,55,48,40,50,43,38,99,83,59,0.00,40.00,4,1,6,0.36
2013-5-23,70,52,38,44,37,22,100,64,17,0.00,40.00,3,1,5,0.00
2013-5-24,57,48,39,50,44,38,98,88,69,0.00,40.00,3,1,4,0.48
2013-5-25,72,52,42,48,43,40,100,76,32,0.00,40.00,4,1,5,0.00
2013-5-26,73,55,41,56,47,41,99,78,35,0.00,40.00,3,1,6,0.12
2013-5-27,74,61,53,56,52,45,99,75,36,0.00,40.00,3,1,7,0.16
2013-5-28,69,60,53,56,52,46,99,78,45,0.00,40.00,4,1,6,0.00
2013-5-29,64,55,49,57,52,48,100,90,66,0.00,40.00,4,1,8,1.11
2013-5-30,65,55,49,55,51,46,100,87,52,0.00,40.00,2,0,4,0.28
2013-5-31,74,58,47,49,45,36,97,66,26,0.00,40.00,4,1,8,0.00
2013-6-1,77,59,41,52,45,40,99,64,28,0.00,40.00,2,1,4,0.00
2013-6-2,73,59,48,56,49,45,95,72,36,0.00,40.00,3,1,8,0.28
2013-6-3,79,63,50,54,49,44,100,67,30,0.00,40.00,4,1,7,0.00
2013-6-4,82,63,46,53,47,41,96,61,25,0.00,40.00,3,1,6,0.00
2013-6-5,88,67,48,54,50,46,96,60,24,0.00,40.00,3,1,5,0.00
2013-6-6,92,70,54,63,54,45,94,63,22,0.00,40.00,3,0,5,0.00
2013-6-7,88,71,55,59,55,49,98,62,27,0.00,40.00,3,1,6,0.00
2013-6-8,85,69,54,57,48,44,86,50,26,0.00,40.00,4,1,6,0.00
2013-6-9,84,67,50,52,48,42,93,56,26,0.00,40.00,3,1,9,0.00
2013-6-10,85,65,47,51,45,39,93,53,20,0.00,40.00,4,1,8,0.00
2013-6-11,78,63,51,51,47,42,89,58,31,0.00,40.00,3,1,7,0.12
2013-6-12,76,64,54,56,47,42,92,56,32,0.00,40.00,6,1,9,0.06
2013-6-13,71,62,55,56,50,42,100,69,36,0.00,40.00,4,1,7,0.13
2013-6-14,75,62,53,52,47,39,86,60,28,0.00,40.00,2,1,6,0.00
2013-6-15,88,64,44,49,43,28,97,55,14,0.00,40.00,3,1,4,0.00
2013-6-16,96,70,47,54,46,38,90,50,15,0.00,40.00,3,1,6,0.00
2013-6-17,89,72,53,58,52,49,88,53,29,0.00,40.00,4,1,6,0.00
2013-6-18,82,69,57,57,55,53,88,62,39,0.00,40.00,4,2,7,0.00
2013-6-19,63,57,52,59,56,51,100,98,74,0.00,40.00,2,1,5,1.45
2013-6-20,69,55,50,55,50,43,100,88,41,0.00,40.00,4,0,7,0.81
2013-6-21,71,68,63,53,51,49,69,54,46,0.00,40.00,3,2,7,0.00
2013-6-22,77,67,53,55,50,45,97,57,35,0.00,40.00,3,1,6,0.00
2013-6-23,82,65,49,62,52,47,99,68,30,0.00,40.00,4,1,6,0.00
2013-6-24,75,65,60,63,60,59,100,87,60,0.00,40.00,3,1,4,0.08
2013-6-25,78,65,58,63,60,54,100,87,44,0.00,40.00,6,1,12,0.25
2013-6-26,79,65,59,63,61,58,100,89,52,0.00,40.00,3,0,7,0.18
2013-6-27,91,72,60,67,62,59,100,76,36,0.00,40.00,2,1,5,0.02
2013-6-28,96,78,62,68,64,61,98,68,32,0.00,40.00,2,1,4,0.00
2013-6-29,97,79,65,72,67,62,97,70,33,0.00,40.00,5,1,9,0.00
2013-6-30,99,81,63,66,63,56,97,60,26,0.00,40.00,2,1,4,0.00
2013-7-1,106,81,64,78,68,62,97,68,34,0.00,40.00,2,1,3,0.00
2013-7-2,103,85,71,76,70,65,97,66,32,0.00,40.00,2,1,6,0.00
2013-7-3,96,81,69,70,64,58,95,62,30,0.00,40.00,3,1,7,0.00
2013-7-4,93,76,63,63,56,48,93,57,24,0.00,40.00,3,1,5,0.00
2013-7-5,87,72,56,58,54,49,94,57,31,0.00,40.00,3,1,10,0.00
2013-7-6,91,70,53,60,53,47,93,61,23,0.00,40.00,3,1,6,0.00
2013-7-7,94,76,56,58,54,47,94,53,21,0.00,40.00,2,1,5,0.00
2013-7-8,89,71,62,64,58,54,98,66,31,0.00,40.00,6,1,8,0.07
2013-7-9,98,76,56,59,53,42,95,54,16,0.00,40.00,3,1,5,0.03
2013-7-10,99,76,57,57,52,-100,90,50,19,0.00,40.00,3,1,6,0.00
2013-7-11,89,74,59,58,52,46,88,52,23,0.00,40.00,3,1,5,0.00
2013-7-12,88,69,54,53,47,39,87,51,21,0.00,40.00,5,1,11,0.00
2013-7-13,86,69,50,49,44,39,83,44,20,0.00,40.00,4,1,7,0.00
2013-7-14,94,72,53,53,47,41,81,47,18,0.00,40.00,2,1,6,0.00
2013-7-15,94,73,55,54,49,42,85,49,18,0.00,40.00,3,1,6,0.00
2013-7-16,98,76,58,65,55,48,81,51,24,0.00,40.00,3,1,5,0.00
2013-7-17,97,83,68,65,59,50,83,49,21,0.00,40.00,4,1,7,0.00
2013-7-18,100,78,59,62,52,44,87,48,15,0.00,40.00,3,1,7,0.00
2013-7-19,101,78,57,56,49,43,85,44,14,0.00,40.00,3,1,7,0.00
2013-7-20,102,76,56,53,46,-100,85,42,12,0.00,40.00,5,1,8,0.00
2013-7-21,102,76,55,53,47,36,85,43,12,0.00,40.00,3,1,5,0.00
2013-7-22,100,76,55,53,48,42,82,44,14,0.00,40.00,2,1,4,0.00
2013-7-23,105,78,56,53,48,41,86,43,12,0.00,40.00,4,1,6,0.00
2013-7-24,104,80,58,54,47,36,77,38,10,0.00,40.00,3,1,6,0.00
2013-7-25,103,80,61,54,48,38,72,38,14,0.00,40.00,3,1,8,0.00
2013-7-26,104,77,56,53,47,36,78,41,10,0.00,40.00,3,1,4,0.00
2013-7-27,95,77,60,53,47,38,71,38,16,0.00,40.00,4,1,7,0.00
2013-7-28,94,74,54,50,46,40,75,41,17,0.00,40.00,3,1,7,0.00
2013-7-29,94,73,54,51,45,36,75,42,15,0.00,40.00,3,1,7,0.00
2013-7-30,96,78,64,53,47,40,62,38,15,0.00,40.00,4,1,6,0.00
2013-7-31,99,76,57,57,50,42,77,44,15,0.00,40.00,3,1,6,0.00
2013-8-1,84,70,61,61,57,51,100,67,37,0.00,40.00,4,1,9,0.26
2013-8-2,79,67,60,63,60,56,100,79,50,0.00,40.00,4,1,6,0.03
2013-8-3,85,69,56,60,57,55,98,69,37,0.00,40.00,2,1,6,0.01
2013-8-4,94,73,55,59,55,51,98,61,26,0.00,40.00,3,1,6,0.00
2013-8-5,95,74,59,58,54,48,86,55,20,0.00,40.00,3,1,8,0.00
2013-8-6,98,77,58,58,53,46,90,51,18,0.00,40.00,3,1,5,0.00
2013-8-7,99,77,58,56,49,36,87,46,11,0.00,40.00,4,1,7,0.00
2013-8-8,99,78,56,54,51,47,83,45,17,0.00,40.00,2,1,6,0.00
2013-8-9,99,77,61,58,54,48,82,49,22,0.00,40.00,3,1,5,0.00
2013-8-10,98,77,60,60,54,48,84,51,19,0.00,40.00,2,1,6,0.00
2013-8-11,90,78,64,65,58,55,78,53,32,0.00,40.00,2,1,5,0.00
2013-8-12,97,78,61,58,55,42,83,51,19,0.00,40.00,3,1,5,0.00
2013-8-13,98,79,65,59,52,-100,75,44,19,0.00,40.00,2,1,5,0.00
2013-8-14,105,77,59,59,48,-100,84,47,12,0.00,40.00,2,1,4,0.00
2013-8-15,102,72,63,58,37,-100,76,42,17,0.00,40.00,2,1,6,0.00
2013-8-16,98,78,62,59,51,-100,77,44,23,0.00,40.00,3,1,7,0.00
2013-8-17,96,76,66,69,57,-100,91,56,25,0.00,40.00,3,1,8,0.06
2013-8-18,95,77,61,65,57,47,97,59,19,0.00,40.00,3,1,7,0.06
2013-8-19,97,74,57,56,43,-100,86,43,21,0.00,40.00,3,1,6,0.00
2013-8-20,92,73,57,54,48,-100,81,47,20,0.00,40.00,3,1,6,0.00
2013-8-21,96,72,52,49,44,36,82,42,13,0.00,40.00,2,1,4,0.00
2013-8-22,98,80,63,58,49,43,57,37,17,0.00,40.00,3,1,6,0.00
2013-8-23,92,76,63,64,59,54,93,62,30,0.00,40.00,3,1,5,0.02
2013-8-24,99,75,57,58,52,-100,90,53,19,0.00,40.00,3,1,7,0.00
2013-8-25,96,74,58,64,54,50,80,53,22,0.00,40.00,4,1,6,0.00
2013-8-26,91,69,58,63,58,50,100,75,25,0.00,40.00,4,1,6,0.23
2013-8-27,81,64,56,57,55,51,93,73,37,0.00,40.00,2,1,3,0.00
2013-8-28,99,86,70,63,58,52,61,40,20,0.00,40.00,2,1,3,0.02
2013-8-29,90,73,60,62,58,54,87,61,30,0.00,40.00,3,1,6,0.01
2013-8-30,90,73,59,60,56,53,95,60,28,0.00,40.00,3,1,6,0.00
2013-8-31,99,74,57,58,52,-100,92,55,19,0.00,40.00,2,1,4,0.00
2013-9-1,102,76,56,59,52,46,87,51,17,0.00,40.00,3,1,6,0.00
2013-9-2,92,76,65,60,56,51,73,52,27,0.00,40.00,3,1,7,0.00
2013-9-3,79,70,67,63,61,59,80,72,54,0.00,40.00,1,0,2,0.00
2013-9-4,98,80,63,64,61,55,93,57,25,0.00,40.00,4,1,4,0.03
2013-9-5,88,72,66,72,66,61,99,82,47,0.00,40.00,5,1,8,0.19
2013-9-6,85,70,63,64,59,54,97,73,37,0.00,40.00,4,1,8,0.01
2013-9-7,86,67,54,56,52,-100,96,64,31,0.00,40.00,2,1,5,0.00
2013-9-8,81,67,59,57,54,49,88,65,34,0.00,40.00,3,1,5,0.00
2013-9-9,90,69,58,56,54,52,86,64,28,0.00,40.00,3,1,5,0.00
2013-9-10,95,72,54,58,54,49,95,60,22,0.00,40.00,3,1,4,0.00
2013-9-11,103,75,54,58,52,42,93,54,13,0.00,40.00,5,1,6,0.00
2013-9-12,103,73,57,56,52,46,83,55,15,0.00,40.00,2,1,6,0.00
2013-9-13,97,78,65,59,55,51,73,49,23,0.00,40.00,2,1,6,0.00
2013-9-14,98,76,62,60,54,-100,83,52,21,0.00,40.00,5,1,8,0.00
2013-9-15,99,78,59,58,54,52,80,50,22,0.00,40.00,5,1,10,0.00
2013-9-16,84,73,62,63,56,49,91,59,31,0.00,40.00,6,1,10,0.02
2013-9-17,76,62,52,58,52,49,100,74,44,0.00,40.00,4,1,9,0.31
2013-9-18,58,56,52,58,56,51,100,99,96,0.00,40.00,2,0,2,0.10
2013-9-19,78,57,47,54,48,42,100,77,28,0.00,40.00,2,1,3,0.01
2013-9-20,87,61,45,53,48,45,100,69,27,0.00,40.00,2,1,3,0.00
2013-9-21,77,61,50,54,47,-100,94,65,32,0.00,40.00,3,1,5,0.00
2013-9-22,67,60,56,54,52,49,89,76,60,0.00,40.00,2,1,4,0.01
2013-9-23,72,66,57,54,48,42,89,54,33,0.00,40.00,2,1,4,0.02
2013-9-24,59,55,51,56,53,50,100,94,80,0.00,40.00,2,1,4,0.61
2013-9-25,55,52,49,53,51,49,100,97,83,0.00,40.00,1,0,4,0.72
2013-9-26,66,55,46,53,49,41,100,83,40,0.00,40.00,3,1,5,0.13
2013-9-27,61,51,42,51,46,42,99,86,62,0.00,40.00,2,1,4,0.04
2013-9-28,60,55,52,58,52,-100,100,95,94,0.00,40.00,2,1,3,0.15
2013-9-29,62,53,51,56,52,50,100,97,66,0.00,40.00,5,0,11,0.39
2013-9-30,68,54,47,56,49,37,100,86,32,0.00,40.00,4,1,8,0.44
2013-10-4,63,51,39,42,37,30,91,62,29,0.00,40.00,3,1,5,0.00
2013-10-5,67,49,34,45,40,34,100,73,36,0.00,40.00,2,1,3,0.00
2013-10-6,42,38,36,40,38,36,100,98,91,0.00,40.00,2,0,2,0.00
2013-10-7,68,58,39,49,44,39,100,64,37,0.00,40.00,4,1,5,0.00
2013-10-8,53,48,46,51,46,41,98,91,82,0.00,40.00,2,0,3,0.08
2013-10-9,59,48,42,46,44,41,99,87,57,0.00,40.00,3,1,4,0.01
2013-10-10,62,53,45,49,46,44,94,79,52,0.00,40.00,2,1,2,0.00
2013-10-11,61,50,43,47,45,42,97,84,58,0.00,40.00,2,0,3,0.00
2013-10-12,60,47,41,47,41,-100,98,83,53,0.00,40.00,2,0,3,0.00
2013-10-13,59,46,39,44,42,39,99,87,55,0.00,40.00,2,0,4,0.00
2013-10-14,62,46,36,42,39,36,100,82,40,0.00,40.00,2,1,5,0.00
2013-10-15,63,43,35,44,38,34,100,83,44,0.00,40.00,2,1,3,0.00
2013-10-16,59,44,36,47,39,36,98,84,52,0.00,40.00,2,1,3,0.00
2013-10-17,64,46,36,46,40,36,100,85,49,0.00,40.00,2,0,3,0.00
2013-10-18,62,44,35,44,39,35,100,84,46,0.00,40.00,2,0,3,0.00
2013-10-19,62,43,33,45,38,-100,100,85,46,0.00,40.00,2,1,3,0.00
2013-10-20,63,45,36,47,41,36,100,87,50,0.00,40.00,2,1,3,0.00
2013-10-21,66,46,36,48,42,36,100,87,48,0.00,40.00,2,0,3,0.00
2013-10-22,67,46,38,51,43,38,100,89,53,0.00,40.00,2,0,4,0.00
2013-10-23,65,45,36,48,41,36,100,88,47,0.00,40.00,2,0,3,0.00
2013-10-24,65,45,35,49,41,35,100,87,47,0.00,40.00,2,0,3,0.00
2013-10-25,65,45,36,49,41,36,100,89,53,0.00,40.00,2,0,2,0.00
2013-10-26,63,42,35,48,37,-100,100,88,51,0.00,40.00,2,0,3,0.00
2013-10-27,54,43,36,46,40,36,100,93,68,0.00,40.00,2,1,4,0.01
2013-10-28,56,48,39,41,26,-100,100,49,29,0.00,40.00,5,2,11,0.01
2013-10-29,56,38,28,31,27,25,93,66,34,0.00,40.00,3,1,5,0.00
2013-10-30,56,40,27,36,30,26,97,72,39,0.00,40.00,2,1,4,0.00
2013-10-31,46,40,36,44,38,31,100,90,78,0.00,40.00,3,0,4,0.02
2013-11-1,57,45,40,49,43,40,100,94,73,0.00,40.00,2,0,3,0.01
2013-11-2,51,43,37,51,41,-100,100,95,60,0.00,40.00,3,1,4,0.36
2013-11-3,44,38,35,42,37,35,100,97,81,0.00,40.00,3,1,3,0.11
2013-11-4,45,38,33,38,36,33,100,96,79,0.00,40.00,3,1,6,0.09
2013-11-5,36,34,31,36,34,29,100,99,92,0.00,40.00,2,1,3,0.09
2013-11-6,46,41,36,43,40,36,100,97,84,0.00,40.00,2,0,3,0.03
2013-11-7,47,43,41,47,43,41,100,100,100,0.00,40.00,4,1,5,0.58
2013-11-8,48,42,38,47,42,38,100,100,97,0.00,40.00,2,0,2,0.06
2013-11-9,48,41,38,45,38,-100,100,95,78,0.00,40.00,2,0,3,0.00
2013-11-10,52,45,40,49,44,40,100,97,81,0.00,40.00,2,0,3,0.03
2013-11-11,58,45,39,49,43,39,100,95,67,0.00,40.00,2,0,2,0.01
2013-11-12,47,42,37,46,42,37,100,99,93,0.00,40.00,2,1,3,0.06
2013-11-13,52,45,41,50,45,41,100,99,87,0.00,40.00,2,0,3,0.01
2013-11-14,48,42,39,43,41,39,100,95,80,0.00,40.00,2,1,3,0.00
2013-11-15,52,44,40,43,40,32,100,88,48,0.00,40.00,2,1,4,0.11
2013-11-16,48,41,37,42,38,-100,100,92,69,0.00,40.00,3,1,4,0.27
2013-11-17,51,40,36,41,38,36,100,93,64,0.00,40.00,3,1,4,0.03
2013-11-18,43,36,32,40,36,32,100,97,84,0.00,40.00,2,1,3,0.01
2013-11-19,46,42,38,46,42,38,100,100,98,0.00,40.00,2,0,3,0.48
2013-11-20,45,38,25,45,32,18,100,80,36,0.00,40.00,4,1,8,0.11
2013-11-21,39,26,20,28,24,19,100,92,62,0.00,40.00,2,0,3,0.00
2013-11-22,37,25,20,28,23,20,100,94,61,0.00,40.00,2,1,3,0.00
2013-11-23,38,26,19,30,23,-100,100,92,66,0.00,40.00,2,0,3,0.00
2013-11-24,42,28,21,33,26,21,100,93,70,0.00,40.00,2,1,3,0.00
2013-11-25,42,31,25,34,29,25,100,94,70,0.00,40.00,2,0,3,0.00
2013-11-26,38,30,25,36,30,25,100,98,90,0.00,40.00,1,0,3,0.00
2013-11-27,40,31,27,37,31,27,100,99,89,0.00,40.00,2,0,2,0.00
2013-11-28,35,31,30,35,31,30,100,100,98,0.00,40.00,2,0,3,0.00
2013-11-29,35,32,29,35,31,29,100,98,95,0.00,40.00,2,1,3,0.01
2013-11-30,39,36,34,39,34,-100,100,99,100,0.00,40.00,1,0,2,0.14
2013-12-1,44,39,36,44,39,36,100,100,100,0.00,40.00,2,0,3,1.00
2013-12-2,44,39,33,44,38,33,100,95,66,0.00,40.00,4,1,6,0.47
2013-12-3,35,29,19,33,21,9,100,73,46,0.00,40.00,4,1,9,0.10
2013-12-4,27,17,11,17,13,9,94,84,55,0.00,40.00,3,1,4,0.01
2013-12-5,20,11,7,11,7,5,95,86,57,0.00,40.00,2,1,3,0.00
2013-12-6,24,15,7,16,10,4,93,81,56,0.00,40.00,2,1,5,0.00
2013-12-7,20,14,4,8,4,-100,85,66,42,0.00,40.00,4,1,6,0.00
2013-12-8,16,8,1,10,4,-1,95,85,70,0.00,40.00,2,1,3,0.00
2013-12-9,22,16,6,20,13,5,94,89,79,0.00,40.00,2,1,2,0.15
2013-12-10,30,25,22,27,23,20,98,93,81,0.00,40.00,2,0,3,0.01
2013-12-11,36,29,22,30,26,22,100,92,70,0.00,40.00,2,1,3,0.01
2013-12-12,35,26,18,30,24,17,100,92,71,0.00,40.00,2,1,3,0.00
2013-12-13,37,34,31,37,34,30,100,100,96,0.00,40.00,1,0,3,0.09
2013-12-14,40,35,34,39,34,-100,100,98,92,0.00,40.00,2,0,3,0.01
2013-12-15,44,35,31,39,34,31,100,98,83,0.00,40.00,2,0,3,0.00
2013-12-16,36,34,32,36,34,32,100,100,97,0.00,40.00,2,0,3,0.00
2013-12-17,36,32,29,35,32,29,100,98,91,0.00,40.00,2,1,3,0.00
2013-12-18,34,32,30,34,32,30,100,100,100,0.00,40.00,2,0,3,0.13
2013-12-19,35,32,27,35,30,24,100,90,65,0.00,40.00,2,0,4,0.13
2013-12-20,31,28,24,31,27,23,100,97,89,0.00,40.00,2,0,3,0.31
2013-12-21,38,33,31,37,32,-100,100,98,96,0.00,40.00,1,0,2,0.09
2013-12-22,36,35,34,36,35,34,100,100,100,0.00,40.00,1,0,2,0.32
2013-12-23,42,36,34,42,36,34,100,100,99,0.00,40.00,4,1,9,0.33
2013-12-24,35,31,28,35,31,28,100,100,100,0.00,40.00,3,1,4,0.06
2013-12-25,30,27,25,29,27,25,100,100,100,0.00,40.00,2,1,3,0.00
2013-12-26,35,30,25,35,30,25,100,100,99,0.00,40.00,2,0,4,0.00
2013-12-27,32,28,24,32,28,24,100,100,100,0.00,40.00,2,0,2,0.00
2013-12-28,37,31,28,37,30,-100,100,99,100,0.00,40.00,2,1,3,0.00
2013-12-29,34,32,28,33,32,28,100,97,90,0.00,40.00,2,0,3,0.00
2013-12-30,35,31,27,35,31,27,100,99,91,0.00,40.00,2,0,3,0.18
2013-12-31,38,36,34,38,36,34,100,100,100,0.00,40.00,3,0,4,0.02
2014-1-1,38,36,34,38,36,34,100,99,95,0.00,40.00,2,0,2,0.01
2014-1-2,38,35,33,36,35,33,100,99,93,0.00,40.00,2,0,4,0.00